createdAt,value
2018-07-21T00:01:18.369Z,22.80
2018-07-21T00:03:45.808Z,22.80
2018-07-21T00:06:13.409Z,22.80
2018-07-21T00:08:40.800Z,22.80
2018-07-21T00:11:08.276Z,22.80
2018-07-21T00:13:35.726Z,22.70
2018-07-21T00:16:03.426Z,22.70
2018-07-21T00:18:30.830Z,22.70
2018-07-21T00:20:58.308Z,22.70
2018-07-21T00:23:25.755Z,22.60
2018-07-21T00:25:53.155Z,22.60
2018-07-21T00:28:20.686Z,22.70
2018-07-21T00:30:48.232Z,22.60
2018-07-21T00:33:15.731Z,22.70
2018-07-21T00:35:43.141Z,22.50
2018-07-21T00:38:10.627Z,22.60
2018-07-21T00:40:38.051Z,22.40
2018-07-21T00:43:05.596Z,22.40
2018-07-21T00:45:33.011Z,22.40
2018-07-21T00:48:00.586Z,22.40
2018-07-21T00:50:28.206Z,22.20
2018-07-21T00:52:55.682Z,22.20
2018-07-21T00:55:23.127Z,22.20
2018-07-21T00:57:50.622Z,22.20
2018-07-21T01:00:18.101Z,22.20
2018-07-21T01:02:45.595Z,22.20
2018-07-21T01:05:13.051Z,22.10
2018-07-21T01:07:40.536Z,22.00
2018-07-21T01:10:08.248Z,22.10
2018-07-21T01:12:36.301Z,22.00
2018-07-21T01:15:04.523Z,22.00
2018-07-21T01:17:31.976Z,21.90
2018-07-21T01:19:59.459Z,21.80
2018-07-21T01:22:26.918Z,21.90
2018-07-21T01:24:54.424Z,21.90
2018-07-21T01:27:21.975Z,21.90
2018-07-21T01:29:49.380Z,21.80
2018-07-21T01:32:16.861Z,21.90
2018-07-21T01:34:44.299Z,21.90
2018-07-21T01:37:11.833Z,21.90
2018-07-21T01:39:39.275Z,21.90
2018-07-21T01:42:06.717Z,21.90
2018-07-21T01:44:34.276Z,22.00
2018-07-21T01:47:01.705Z,21.90
2018-07-21T01:49:29.117Z,21.90
2018-07-21T01:51:56.502Z,21.90
2018-07-21T01:54:24.006Z,22.00
2018-07-21T01:56:51.556Z,21.90
2018-07-21T01:59:19.029Z,21.90
2018-07-21T02:01:46.443Z,21.80
2018-07-21T02:04:13.849Z,21.80
2018-07-21T02:06:41.331Z,21.80
2018-07-21T02:09:10.036Z,21.80
2018-07-21T02:11:37.519Z,21.70
2018-07-21T02:14:05.068Z,21.70
2018-07-21T02:16:32.637Z,21.70
2018-07-21T02:19:00.055Z,21.60
2018-07-21T02:21:27.579Z,21.70
2018-07-21T02:23:55.104Z,21.60
2018-07-21T02:26:22.620Z,21.60
2018-07-21T02:28:50.297Z,21.60
2018-07-21T02:31:17.914Z,21.50
2018-07-21T02:33:45.416Z,21.50
2018-07-21T02:36:12.854Z,21.50
2018-07-21T02:38:40.334Z,21.50
2018-07-21T02:41:07.863Z,21.50
2018-07-21T02:43:35.255Z,21.50
2018-07-21T02:46:02.728Z,21.40
2018-07-21T02:48:30.179Z,21.40
2018-07-21T02:50:57.604Z,21.30
2018-07-21T02:53:25.007Z,21.30
2018-07-21T02:55:52.473Z,21.30
2018-07-21T02:58:19.926Z,21.20
2018-07-21T03:00:47.380Z,21.20
2018-07-21T03:03:14.819Z,21.10
2018-07-21T03:05:42.253Z,21.00
2018-07-21T03:08:09.726Z,21.00
2018-07-21T03:10:37.162Z,20.90
2018-07-21T03:13:04.589Z,20.90
2018-07-21T03:15:32.138Z,20.90
2018-07-21T03:17:59.580Z,20.90
2018-07-21T03:20:27.056Z,20.90
2018-07-21T03:22:54.503Z,20.90
2018-07-21T03:25:21.871Z,20.90
2018-07-21T03:27:49.433Z,20.90
2018-07-21T03:30:16.999Z,20.80
2018-07-21T03:32:50.420Z,20.80
2018-07-21T03:35:17.828Z,20.80
2018-07-21T03:37:45.247Z,20.80
2018-07-21T03:40:12.710Z,20.70
2018-07-21T03:42:40.828Z,20.70
2018-07-21T03:45:08.436Z,20.80
2018-07-21T03:47:35.894Z,20.80
2018-07-21T03:50:03.873Z,20.80
2018-07-21T03:52:31.380Z,20.80
2018-07-21T03:54:58.892Z,20.80
2018-07-21T03:57:26.281Z,20.80
2018-07-21T03:59:53.742Z,20.80
2018-07-21T04:02:21.250Z,20.80
2018-07-21T04:04:48.731Z,20.70
2018-07-21T04:07:16.183Z,20.80
2018-07-21T04:09:43.619Z,20.80
2018-07-21T04:12:11.190Z,20.80
2018-07-21T04:14:38.609Z,20.80
2018-07-21T04:17:10.601Z,20.80
2018-07-21T04:19:37.987Z,20.80
2018-07-21T04:22:05.338Z,20.80
2018-07-21T04:24:32.709Z,20.70
2018-07-21T04:27:00.186Z,20.90
2018-07-21T04:29:27.711Z,20.80
2018-07-21T04:31:55.134Z,20.70
2018-07-21T04:34:22.564Z,20.80
2018-07-21T04:39:17.421Z,20.70
2018-07-21T04:41:44.847Z,20.70
2018-07-21T04:44:12.242Z,20.70
2018-07-21T04:46:39.698Z,20.80
2018-07-21T04:49:07.127Z,20.60
2018-07-21T04:51:34.482Z,20.70
2018-07-21T04:54:02.015Z,20.70
2018-07-21T04:56:29.500Z,20.60
2018-07-21T04:58:56.920Z,20.70
2018-07-21T05:01:24.395Z,20.70
2018-07-21T05:06:19.315Z,20.70
2018-07-21T05:08:46.807Z,20.80
2018-07-21T05:11:14.201Z,20.80
2018-07-21T05:13:41.668Z,20.70
2018-07-21T05:16:09.124Z,20.70
2018-07-21T05:18:36.597Z,20.80
2018-07-21T05:21:04.074Z,20.80
2018-07-21T05:23:31.491Z,20.80
2018-07-21T05:25:58.951Z,20.90
2018-07-21T05:28:26.596Z,20.80
2018-07-21T05:30:54.052Z,20.80
2018-07-21T05:33:21.555Z,20.80
2018-07-21T05:35:48.994Z,20.80
2018-07-21T05:38:16.366Z,20.80
2018-07-21T05:40:43.832Z,20.80
2018-07-21T05:43:11.303Z,20.70
2018-07-21T05:45:38.666Z,20.70
2018-07-21T05:48:05.958Z,20.70
2018-07-21T05:50:33.472Z,20.60
2018-07-21T05:53:00.969Z,20.60
2018-07-21T05:55:28.382Z,20.70
2018-07-21T05:57:55.890Z,20.60
2018-07-21T06:00:23.399Z,20.60
2018-07-21T06:02:50.856Z,20.60
2018-07-21T06:05:18.275Z,20.60
2018-07-21T06:07:45.778Z,20.70
2018-07-21T06:10:13.217Z,20.60
2018-07-21T06:12:40.735Z,20.60
2018-07-21T06:15:08.278Z,20.60
2018-07-21T06:17:35.713Z,20.70
2018-07-21T06:20:03.187Z,20.80
2018-07-21T06:22:30.872Z,20.80
2018-07-21T06:24:58.250Z,20.70
2018-07-21T06:27:25.640Z,20.80
2018-07-21T06:29:53.035Z,20.80
2018-07-21T06:32:20.594Z,20.70
2018-07-21T06:34:48.156Z,20.80
2018-07-21T06:37:15.495Z,20.80
2018-07-21T06:39:42.958Z,20.80
2018-07-21T06:42:10.388Z,20.80
2018-07-21T06:44:37.896Z,20.80
2018-07-21T06:47:05.686Z,20.70
2018-07-21T06:49:33.168Z,20.70
2018-07-21T06:52:00.506Z,20.70
2018-07-21T06:54:28.073Z,20.80
2018-07-21T06:56:55.408Z,20.90
2018-07-21T06:59:22.907Z,20.90
2018-07-21T07:01:50.420Z,20.90
2018-07-21T07:04:17.800Z,21.00
2018-07-21T07:06:45.332Z,20.90
2018-07-21T07:09:12.777Z,21.00
2018-07-21T07:11:40.414Z,21.00
2018-07-21T07:14:08.769Z,20.90
2018-07-21T07:16:36.572Z,21.00
2018-07-21T07:19:04.429Z,21.00
2018-07-21T07:21:31.894Z,21.00
2018-07-21T07:23:59.424Z,21.00
2018-07-21T07:26:26.979Z,21.00
2018-07-21T07:28:54.505Z,21.00
2018-07-21T07:31:22.046Z,21.00
2018-07-21T07:33:49.453Z,20.80
2018-07-21T07:36:17.021Z,20.90
2018-07-21T07:38:44.401Z,21.00
2018-07-21T07:41:11.948Z,20.90
2018-07-21T07:43:39.361Z,21.00
2018-07-21T07:46:06.821Z,21.00
2018-07-21T07:48:34.410Z,21.00
2018-07-21T07:51:02.042Z,20.90
2018-07-21T07:53:29.553Z,20.90
2018-07-21T07:55:56.897Z,20.90
2018-07-21T07:58:24.255Z,20.80
2018-07-21T08:00:51.845Z,20.70
2018-07-21T08:03:19.346Z,20.60
2018-07-21T08:05:46.735Z,20.60
2018-07-21T08:08:14.313Z,20.50
2018-07-21T08:10:41.831Z,20.60
2018-07-21T08:13:09.396Z,20.40
2018-07-21T08:15:36.820Z,20.40
2018-07-21T08:18:05.625Z,21.60
2018-07-21T08:20:33.126Z,21.80
2018-07-21T08:23:00.618Z,22.10
2018-07-21T08:25:28.185Z,22.00
2018-07-21T08:27:55.787Z,21.90
2018-07-21T08:30:23.286Z,21.90
2018-07-21T08:32:50.678Z,21.90
2018-07-21T08:35:18.169Z,21.70
2018-07-21T08:37:45.563Z,21.80
2018-07-21T08:40:13.058Z,21.70
2018-07-21T08:42:40.410Z,21.70
2018-07-21T08:45:08.497Z,21.70
2018-07-21T08:47:35.951Z,21.80
2018-07-21T08:50:04.655Z,21.90
2018-07-21T08:52:32.032Z,21.80
2018-07-21T08:54:59.576Z,21.70
2018-07-21T08:57:27.135Z,21.70
2018-07-21T08:59:54.659Z,21.60
2018-07-21T09:02:22.085Z,21.60
2018-07-21T09:04:49.666Z,21.70
2018-07-21T09:07:17.160Z,21.80
2018-07-21T09:09:44.617Z,21.80
2018-07-21T09:12:12.090Z,21.70
2018-07-21T09:14:39.606Z,21.80
2018-07-21T09:17:07.178Z,21.80
2018-07-21T09:19:34.629Z,21.80
2018-07-21T09:22:02.170Z,21.80
2018-07-21T09:24:29.748Z,21.90
2018-07-21T09:26:57.220Z,22.00
2018-07-21T09:29:24.694Z,22.00
2018-07-21T09:31:52.182Z,22.10
2018-07-21T09:34:19.779Z,22.10
2018-07-21T09:36:47.267Z,22.10
2018-07-21T09:39:14.746Z,22.30
2018-07-21T09:41:42.346Z,22.50
2018-07-21T09:44:09.981Z,22.40
2018-07-21T09:46:38.411Z,22.30
2018-07-21T09:49:05.948Z,22.20
2018-07-21T09:51:33.481Z,22.00
2018-07-21T09:54:01.041Z,22.10
2018-07-21T09:56:28.525Z,22.00
2018-07-21T09:58:56.107Z,22.10
2018-07-21T10:01:23.608Z,22.30
2018-07-21T10:03:51.121Z,22.40
2018-07-21T10:06:18.688Z,22.30
2018-07-21T10:08:46.274Z,22.60
2018-07-21T10:11:13.739Z,22.80
2018-07-21T10:13:41.201Z,22.80
2018-07-21T10:16:08.835Z,22.90
2018-07-21T10:18:36.297Z,22.70
2018-07-21T10:21:03.807Z,22.70
2018-07-21T10:23:31.358Z,22.70
2018-07-21T10:26:04.557Z,22.60
2018-07-21T10:31:05.250Z,22.80
2018-07-21T10:33:32.722Z,23.10
2018-07-21T10:36:00.305Z,23.00
2018-07-21T10:38:27.811Z,23.00
2018-07-21T10:40:55.308Z,23.30
2018-07-21T10:43:22.878Z,23.40
2018-07-21T10:45:50.375Z,23.40
2018-07-21T10:48:17.767Z,23.40
2018-07-21T10:50:45.234Z,23.60
2018-07-21T10:53:12.645Z,23.60
2018-07-21T10:55:40.169Z,23.90
2018-07-21T10:58:07.732Z,23.80
2018-07-21T11:00:35.164Z,24.10
2018-07-21T11:03:02.715Z,24.30
2018-07-21T11:05:30.200Z,24.20
2018-07-21T11:07:57.804Z,24.60
2018-07-21T11:10:25.429Z,24.50
2018-07-21T11:12:52.899Z,24.70
2018-07-21T11:15:20.518Z,24.70
2018-07-21T11:17:47.950Z,24.60
2018-07-21T11:20:15.452Z,24.70
2018-07-21T11:22:42.827Z,24.80
2018-07-21T11:25:10.322Z,24.90
2018-07-21T11:27:37.827Z,24.70
2018-07-21T11:30:05.712Z,24.90
2018-07-21T11:32:33.219Z,25.10
2018-07-21T11:35:00.743Z,25.10
2018-07-21T11:37:28.199Z,25.40
2018-07-21T11:39:55.583Z,25.10
2018-07-21T11:42:23.085Z,25.40
2018-07-21T11:44:50.717Z,25.70
2018-07-21T11:47:18.185Z,25.60
2018-07-21T11:52:13.331Z,26.50
2018-07-21T11:54:40.844Z,26.40
2018-07-21T11:57:08.396Z,26.50
2018-07-21T11:59:35.856Z,26.60
2018-07-21T12:02:03.472Z,26.90
2018-07-21T12:04:32.599Z,27.10
2018-07-21T12:07:00.148Z,27.20
2018-07-21T12:09:27.539Z,27.20
2018-07-21T12:11:55.057Z,27.40
2018-07-21T12:14:22.505Z,27.60
2018-07-21T12:16:50.121Z,27.70
2018-07-21T12:19:17.531Z,27.80
2018-07-21T12:21:44.987Z,27.80
2018-07-21T12:24:12.520Z,27.90
2018-07-21T12:26:39.988Z,28.00
2018-07-21T12:29:07.707Z,28.20
2018-07-21T12:34:02.720Z,28.30
2018-07-21T12:36:30.199Z,28.20
2018-07-21T12:38:57.761Z,28.10
2018-07-21T12:41:25.266Z,28.00
2018-07-21T12:43:52.850Z,28.30
2018-07-21T12:46:20.334Z,28.40
2018-07-21T12:48:47.841Z,28.40
2018-07-21T12:51:15.517Z,28.20
2018-07-21T12:53:43.124Z,28.10
2018-07-21T12:56:10.543Z,28.50
2018-07-21T12:58:38.156Z,28.70
2018-07-21T13:01:05.714Z,28.70
2018-07-21T13:03:33.250Z,28.90
2018-07-21T13:06:00.737Z,29.10
2018-07-21T13:08:28.147Z,29.00
2018-07-21T13:10:55.784Z,28.90
2018-07-21T13:13:23.356Z,28.90
2018-07-21T13:15:50.810Z,29.10
2018-07-21T13:18:18.176Z,29.10
2018-07-21T13:20:45.701Z,29.20
2018-07-21T13:23:13.524Z,29.20
2018-07-21T13:28:40.644Z,29.10
2018-07-21T13:33:36.451Z,28.80
2018-07-21T13:36:03.997Z,28.60
2018-07-21T13:38:31.792Z,28.40
2018-07-21T13:40:59.243Z,28.60
2018-07-21T13:43:26.674Z,28.40
2018-07-21T13:45:54.257Z,28.40
2018-07-21T13:48:21.682Z,28.20
2018-07-21T13:50:49.195Z,27.90
2018-07-21T13:53:16.675Z,27.70
2018-07-21T13:55:44.224Z,27.60
2018-07-21T13:58:13.290Z,27.40
2018-07-21T14:00:40.884Z,27.50
2018-07-21T14:03:08.331Z,27.40
2018-07-21T14:05:35.911Z,27.30
2018-07-21T14:08:03.394Z,27.40
2018-07-21T14:10:30.950Z,27.30
2018-07-21T14:12:58.467Z,27.30
2018-07-21T14:15:26.057Z,27.30
2018-07-21T14:17:53.582Z,27.10
2018-07-21T14:20:21.364Z,27.00
2018-07-21T14:22:48.919Z,26.80
2018-07-21T14:25:16.594Z,26.50
2018-07-21T14:27:44.066Z,26.50
2018-07-21T14:30:11.604Z,26.50
2018-07-21T14:32:39.077Z,26.50
2018-07-21T14:35:06.632Z,26.60
2018-07-21T14:37:34.130Z,26.70
2018-07-21T14:40:01.641Z,26.90
2018-07-21T14:42:29.161Z,26.90
2018-07-21T14:44:56.629Z,26.70
2018-07-21T14:47:24.137Z,26.40
2018-07-21T14:49:51.621Z,26.40
2018-07-21T14:52:19.170Z,26.20
2018-07-21T14:54:46.643Z,26.10
2018-07-21T14:57:14.017Z,25.80
2018-07-21T14:59:41.461Z,25.10
2018-07-21T15:02:08.984Z,24.40
2018-07-21T15:04:36.486Z,24.10
2018-07-21T15:07:03.869Z,23.80
2018-07-21T15:09:31.310Z,23.50
2018-07-21T15:11:58.804Z,23.20
2018-07-21T15:14:26.229Z,23.00
2018-07-21T15:16:53.707Z,22.80
2018-07-21T15:19:21.174Z,22.50
2018-07-21T15:21:48.663Z,22.40
2018-07-21T15:24:16.184Z,22.20
2018-07-21T15:26:43.621Z,22.20
2018-07-21T15:29:10.999Z,22.10
2018-07-21T15:31:38.463Z,22.00
2018-07-21T15:34:05.913Z,22.00
2018-07-21T15:36:33.401Z,21.90
2018-07-21T15:39:00.800Z,22.00
2018-07-21T15:41:28.263Z,22.10
2018-07-21T15:43:55.663Z,22.20
2018-07-21T15:46:23.090Z,22.20
2018-07-21T15:48:50.531Z,22.30
2018-07-21T15:51:17.931Z,22.30
2018-07-21T15:53:45.313Z,22.40
2018-07-21T15:56:12.814Z,22.40
2018-07-21T15:58:40.334Z,22.30
2018-07-21T16:01:07.806Z,22.40
2018-07-21T16:03:35.317Z,22.30
2018-07-21T16:06:02.833Z,22.30
2018-07-21T16:08:30.358Z,22.40
2018-07-21T16:10:57.736Z,22.40
2018-07-21T16:13:25.208Z,22.30
2018-07-21T16:15:52.664Z,22.20
2018-07-21T16:18:20.120Z,22.10
2018-07-21T16:20:47.624Z,22.10
2018-07-21T16:23:15.001Z,22.20
2018-07-21T16:25:42.554Z,22.30
2018-07-21T16:28:09.952Z,22.30
2018-07-21T16:30:37.429Z,22.10
2018-07-21T16:33:05.088Z,22.00
2018-07-21T16:35:32.519Z,22.00
2018-07-21T16:37:59.947Z,22.10
2018-07-21T16:40:27.461Z,21.90
2018-07-21T16:42:54.926Z,21.80
2018-07-21T16:45:22.452Z,21.80
2018-07-21T16:47:49.981Z,21.80
2018-07-21T16:50:17.404Z,21.90
2018-07-21T16:52:44.875Z,22.00
2018-07-21T16:55:12.457Z,22.00
2018-07-21T16:57:39.841Z,22.10
2018-07-21T17:02:34.656Z,22.00
2018-07-21T17:05:02.143Z,21.80
2018-07-21T17:07:29.620Z,21.50
2018-07-21T17:09:57.001Z,21.50
2018-07-21T17:12:24.426Z,21.50
2018-07-21T17:14:51.798Z,21.40
2018-07-21T17:17:19.452Z,21.40
2018-07-21T17:19:46.904Z,21.50
2018-07-21T17:22:14.360Z,21.50
2018-07-21T17:24:41.767Z,21.70
2018-07-21T17:27:09.260Z,21.70
2018-07-21T17:29:36.792Z,21.70
2018-07-21T17:32:04.176Z,21.70
2018-07-21T17:34:31.695Z,21.90
2018-07-21T17:36:59.165Z,21.70
2018-07-21T17:39:26.700Z,21.80
2018-07-21T17:41:54.023Z,21.80
2018-07-21T17:44:21.463Z,21.80
2018-07-21T17:46:48.865Z,21.80
2018-07-21T17:49:16.345Z,21.80
2018-07-21T17:51:43.736Z,21.80
2018-07-21T17:54:11.167Z,21.80
2018-07-21T17:56:38.518Z,21.80
2018-07-21T17:59:05.991Z,21.70
2018-07-21T18:01:33.437Z,21.80
2018-07-21T18:04:00.873Z,21.80
2018-07-21T18:06:28.306Z,21.80
2018-07-21T18:08:55.729Z,21.70
2018-07-21T18:11:23.247Z,21.80
2018-07-21T18:13:50.712Z,21.80
2018-07-21T18:16:18.122Z,22.00
2018-07-21T18:18:45.594Z,21.90
2018-07-21T18:21:13.121Z,21.90
2018-07-21T18:23:40.645Z,21.90
2018-07-21T18:26:08.098Z,21.90
2018-07-21T18:28:35.569Z,21.90
2018-07-21T18:31:03.030Z,21.90
2018-07-21T18:33:30.639Z,22.00
2018-07-21T18:35:58.122Z,22.00
2018-07-21T18:38:25.639Z,22.00
2018-07-21T18:40:53.111Z,22.00
2018-07-21T18:43:20.602Z,22.00
2018-07-21T18:45:48.074Z,21.90
2018-07-21T18:48:15.516Z,21.80
2018-07-21T18:50:42.976Z,21.90
2018-07-21T18:53:10.399Z,21.80
2018-07-21T18:55:37.865Z,21.80
2018-07-21T18:58:05.338Z,21.80
2018-07-21T19:00:32.703Z,21.70
2018-07-21T19:03:00.128Z,21.80
2018-07-21T19:05:27.633Z,21.80
2018-07-21T19:07:55.096Z,21.80
2018-07-21T19:10:22.582Z,21.70
2018-07-21T19:12:50.013Z,21.70
2018-07-21T19:16:21.055Z,21.80
2018-07-21T19:18:48.836Z,22.00
2018-07-21T19:21:17.279Z,21.80
2018-07-21T19:23:45.128Z,21.70
2018-07-21T19:26:18.277Z,21.80
2018-07-21T19:28:45.720Z,21.80
2018-07-21T19:31:13.130Z,21.90
2018-07-21T19:33:40.454Z,22.00
2018-07-21T19:36:07.945Z,22.10
2018-07-21T19:38:35.394Z,22.10
2018-07-21T19:41:08.630Z,22.20
2018-07-21T19:43:36.070Z,22.10
2018-07-21T19:46:03.499Z,22.10
2018-07-21T19:48:30.956Z,22.20
2018-07-21T19:50:58.387Z,22.10
2018-07-21T19:53:25.894Z,22.00
2018-07-21T19:55:53.372Z,21.90
2018-07-21T20:00:48.410Z,22.00
2018-07-21T20:03:16.347Z,21.80
2018-07-21T20:05:43.737Z,21.80
2018-07-21T20:08:11.162Z,21.90
2018-07-21T20:10:38.712Z,21.90
2018-07-21T20:13:06.134Z,21.80
2018-07-21T20:15:34.100Z,21.70
2018-07-21T20:18:01.466Z,21.70
2018-07-21T20:20:28.995Z,21.80
2018-07-21T20:22:56.395Z,21.70
2018-07-21T20:25:23.956Z,21.70
2018-07-21T20:27:51.522Z,21.70
2018-07-21T20:30:19.094Z,21.70
2018-07-21T20:32:46.504Z,21.80
2018-07-21T20:35:13.933Z,21.70
2018-07-21T20:37:41.505Z,21.70
2018-07-21T20:40:08.957Z,21.70
2018-07-21T20:42:36.383Z,21.80
2018-07-21T20:45:03.838Z,21.80
2018-07-21T20:47:31.271Z,21.80
2018-07-21T20:49:58.683Z,21.80
2018-07-21T20:52:26.144Z,21.90
2018-07-21T20:54:53.578Z,21.90
2018-07-21T20:57:21.037Z,21.90
2018-07-21T20:59:48.514Z,21.90
2018-07-21T21:02:16.034Z,21.90
2018-07-21T21:04:43.494Z,22.10
2018-07-21T21:07:11.166Z,22.20
2018-07-21T21:09:38.615Z,22.20
2018-07-21T21:12:06.093Z,22.20
2018-07-21T21:14:33.493Z,22.10
2018-07-21T21:17:00.817Z,22.00
2018-07-21T21:19:28.236Z,22.00
2018-07-21T21:21:55.560Z,21.90
2018-07-21T21:24:22.985Z,21.90
2018-07-21T21:26:50.431Z,21.90
2018-07-21T21:29:17.798Z,21.90
2018-07-21T21:31:45.190Z,21.70
2018-07-21T21:34:12.573Z,21.80
2018-07-21T21:36:39.927Z,21.90
2018-07-21T21:39:09.391Z,21.90
2018-07-21T21:41:36.860Z,22.00
2018-07-21T21:44:04.361Z,21.90
2018-07-21T21:46:31.785Z,22.00
2018-07-21T21:48:59.235Z,22.10
2018-07-21T21:51:26.722Z,22.10
2018-07-21T21:53:54.106Z,22.20
2018-07-21T21:56:21.425Z,22.00
2018-07-21T21:58:48.982Z,22.00
2018-07-21T22:01:16.496Z,21.90
2018-07-21T22:03:44.433Z,21.90
2018-07-21T22:06:11.846Z,21.90
2018-07-21T22:08:39.423Z,21.90
2018-07-21T22:11:07.130Z,21.90
2018-07-21T22:13:34.581Z,22.00
2018-07-21T22:16:02.105Z,22.10
2018-07-21T22:18:30.447Z,22.10
2018-07-21T22:20:57.905Z,22.20
2018-07-21T22:23:25.475Z,22.10
2018-07-21T22:25:52.889Z,21.80
2018-07-21T22:28:20.388Z,21.80
2018-07-21T22:30:47.807Z,21.70
2018-07-21T22:33:15.264Z,21.70
2018-07-21T22:35:42.737Z,21.70
2018-07-21T22:38:10.265Z,21.70
2018-07-21T22:40:37.747Z,21.60
2018-07-21T22:43:05.223Z,21.70
2018-07-21T22:45:32.707Z,21.70
2018-07-21T22:48:00.202Z,21.80
2018-07-21T22:50:27.627Z,21.80
2018-07-21T22:52:55.160Z,21.70
2018-07-21T22:55:22.591Z,21.60
2018-07-21T22:57:50.143Z,21.60
2018-07-21T23:00:17.573Z,21.60
2018-07-21T23:02:45.078Z,21.60
2018-07-21T23:05:12.577Z,21.70
2018-07-21T23:07:40.021Z,21.60
2018-07-21T23:10:07.647Z,21.60
2018-07-21T23:12:35.816Z,21.60
2018-07-21T23:15:03.989Z,21.60
2018-07-21T23:17:31.471Z,21.50
2018-07-21T23:19:59.051Z,21.50
2018-07-21T23:22:26.557Z,21.60
2018-07-21T23:24:53.993Z,21.60
2018-07-21T23:27:21.385Z,21.60
2018-07-21T23:29:49.479Z,21.60
2018-07-21T23:32:16.930Z,21.60
2018-07-21T23:34:44.423Z,21.50
2018-07-21T23:37:11.792Z,21.50
2018-07-21T23:39:39.174Z,21.50
2018-07-21T23:42:06.636Z,21.50
2018-07-21T23:44:34.097Z,21.40
2018-07-21T23:47:01.512Z,21.40
2018-07-21T23:49:28.940Z,21.40
2018-07-21T23:51:56.335Z,21.40
2018-07-21T23:56:51.143Z,21.50
2018-07-21T23:59:18.623Z,21.50
